Time;durP1;ratioP1;P1;durP2;ratioP2;P2;SDS_P1;SDS_P2;PMS_P1;PMS_P2;Temp;Humidity;BMP_temperature;BMP_pressure;BME280_temperature;BME280_humidity;BME280_pressure;Samples;Min_cycle;Max_cycle;Signal;HPM_P1;HPM_P2
2021/08/25 00:00:26;;;;;;;9.05;4.88;;;;;;;13.45;70.00;99109.66;5031884;28;20076;-71
2021/08/25 00:02:52;;;;;;;8.32;4.55;;;;;;;13.47;69.74;99099.97;5031568;28;20057;-71
2021/08/25 00:05:17;;;;;;;10.68;4.57;;;;;;;13.52;69.89;99099.91;5032287;28;20041;-73
2021/08/25 00:07:43;;;;;;;8.85;4.68;;;;;;;13.54;69.82;99096.84;5031818;28;20430;-72
2021/08/25 00:10:08;;;;;;;7.63;4.40;;;;;;;13.54;69.92;99100.41;5031765;28;20055;-72
2021/08/25 00:12:34;;;;;;;11.60;5.05;;;;;;;13.59;69.91;99094.03;5031146;28;20516;-72
2021/08/25 00:14:59;;;;;;;7.93;4.45;;;;;;;13.59;69.72;99093.19;5031457;28;20494;-73
2021/08/25 00:17:25;;;;;;;9.93;4.72;;;;;;;13.60;69.70;99094.81;5031659;28;20668;-72
2021/08/25 00:19:51;;;;;;;10.30;4.45;;;;;;;13.61;69.77;99089.03;5031302;28;20046;-72
2021/08/25 00:22:17;;;;;;;9.35;4.72;;;;;;;13.62;69.60;99090.66;5030926;28;20029;-72
2021/08/25 00:24:42;;;;;;;7.90;4.40;;;;;;;13.65;69.89;99097.50;5031596;28;20063;-73
2021/08/25 00:27:08;;;;;;;10.65;4.53;;;;;;;13.67;69.46;99084.25;5031419;28;20029;-72
2021/08/25 00:29:36;;;;;;;7.57;4.22;;;;;;;13.68;69.69;99086.69;5031003;28;20029;-71
2021/08/25 00:32:02;;;;;;;7.95;4.45;;;;;;;13.71;69.55;99090.78;5030674;28;20473;-73
2021/08/25 00:34:27;;;;;;;9.68;4.90;;;;;;;13.72;69.68;99086.06;5013176;28;20036;-72
2021/08/25 00:36:53;;;;;;;8.63;4.45;;;;;;;13.74;69.58;99083.84;5031415;28;20116;-72
2021/08/25 00:39:18;;;;;;;9.75;5.32;;;;;;;13.75;69.73;99091.00;5031098;28;20511;-72
2021/08/25 00:41:43;;;;;;;9.77;5.38;;;;;;;13.75;69.66;99085.47;5030889;28;20036;-72
2021/08/25 00:44:12;;;;;;;9.50;4.78;;;;;;;13.69;69.42;99085.56;5030656;28;20037;-72
2021/08/25 00:46:37;;;;;;;11.75;5.30;;;;;;;13.72;69.46;99078.66;5013355;28;20055;-72
2021/08/25 00:49:03;;;;;;;11.63;5.50;;;;;;;13.74;69.45;99081.09;5029133;28;20021;-71
2021/08/25 00:51:29;;;;;;;11.00;5.32;;;;;;;13.76;69.57;99074.16;5013188;28;20036;-71
2021/08/25 00:53:56;;;;;;;10.43;5.53;;;;;;;13.76;69.76;99076.91;5029625;28;20033;-71
2021/08/25 00:56:22;;;;;;;10.13;5.50;;;;;;;13.77;69.52;99077.72;5031250;28;20064;-71
2021/08/25 00:58:49;;;;;;;11.50;5.43;;;;;;;13.65;68.96;99087.28;5030071;28;20137;-68
2021/08/25 01:01:52;;;;;;;10.23;5.30;;;;;;;13.65;69.40;99075.44;5030169;28;20025;-70
2021/08/25 01:04:49;;;;;;;10.27;5.50;;;;;;;13.68;69.49;99072.09;5030997;28;20116;-69
2021/08/25 01:07:15;;;;;;;11.13;5.32;;;;;;;13.72;69.61;99075.88;5024287;28;20486;-71
2021/08/25 01:09:41;;;;;;;11.00;5.70;;;;;;;13.76;69.38;99070.56;5029323;28;20120;-71
2021/08/25 01:12:10;;;;;;;11.20;4.93;;;;;;;13.76;69.74;99073.34;5011094;28;20124;-71
2021/08/25 01:14:39;;;;;;;12.77;6.35;;;;;;;13.78;69.76;99085.72;5029255;28;20040;-71
2021/08/25 01:17:05;;;;;;;11.02;6.50;;;;;;;13.81;69.67;99067.72;5029895;28;20108;-71
2021/08/25 01:19:55;;;;;;;10.77;7.38;;;;;;;13.83;69.61;99065.50;5029071;28;20075;-71
2021/08/25 01:22:21;;;;;;;;;;;;;;;13.84;69.55;99069.88;5028083;28;20026;-71
2021/08/25 01:24:49;;;;;;;10.88;7.10;;;;;;;13.78;69.44;99068.34;5029359;28;20392;-70
2021/08/25 01:27:17;;;;;;;12.13;6.00;;;;;;;13.68;69.32;99061.88;5011556;28;20385;-70
2021/08/25 01:29:43;;;;;;;15.82;5.97;;;;;;;13.64;69.35;99071.06;5011649;28;20034;-70
2021/08/25 01:32:09;;;;;;;12.35;5.05;;;;;;;13.61;69.88;99060.63;5029182;28;20029;-71
2021/08/25 01:34:54;;;;;;;9.20;5.25;;;;;;;13.46;69.34;99056.19;5028894;28;20049;-72
2021/08/25 01:37:23;;;;;;;12.57;5.65;;;;;;;13.49;69.69;99063.88;5027279;28;20020;-71
2021/08/25 01:39:50;;;;;;;12.63;4.97;;;;;;;13.50;69.53;99055.28;5028734;28;20509;-70
2021/08/25 01:42:17;;;;;;;10.88;4.88;;;;;;;13.44;69.32;99056.53;5028976;28;20034;-71
2021/08/25 01:44:44;;;;;;;10.77;5.15;;;;;;;13.34;69.83;99054.69;5029113;28;20071;-70
2021/08/25 01:47:10;;;;;;;11.57;5.50;;;;;;;13.35;69.45;99050.00;5030837;28;20128;-70
2021/08/25 01:49:36;;;;;;;9.82;5.03;;;;;;;13.37;69.76;99048.59;5033185;28;20100;-71
2021/08/25 01:52:01;;;;;;;11.90;5.50;;;;;;;13.35;69.80;99042.56;5032681;28;20032;-71
2021/08/25 01:54:27;;;;;;;11.65;5.40;;;;;;;13.27;69.58;99034.16;5032733;28;20121;-71
2021/08/25 01:56:52;;;;;;;9.90;5.20;;;;;;;13.22;69.57;99040.59;5015409;28;20036;-71
2021/08/25 01:59:17;;;;;;;12.20;5.25;;;;;;;13.20;69.62;99040.06;5032688;28;20025;-70
2021/08/25 02:01:43;;;;;;;11.35;5.30;;;;;;;13.11;69.35;99028.88;5015274;28;20481;-71
2021/08/25 02:04:09;;;;;;;8.77;5.20;;;;;;;13.10;69.87;99027.25;5032510;28;20056;-71
2021/08/25 02:06:35;;;;;;;11.15;5.43;;;;;;;13.12;69.94;99029.72;5031973;28;20056;-72
2021/08/25 02:09:01;;;;;;;9.65;5.00;;;;;;;13.04;69.85;99023.75;5032842;28;20047;-69
2021/08/25 02:11:26;;;;;;;9.85;4.82;;;;;;;13.09;70.21;99014.59;5014845;28;20021;-71
2021/08/25 02:13:52;;;;;;;11.30;5.07;;;;;;;13.19;70.11;99019.94;5014899;28;20425;-71
2021/08/25 02:16:18;;;;;;;11.80;5.43;;;;;;;13.29;70.36;99021.72;5013149;28;20029;-71
2021/08/25 02:18:44;;;;;;;11.43;5.47;;;;;;;13.31;70.13;99021.44;5032518;28;20043;-70
2021/08/25 02:21:10;;;;;;;11.05;5.85;;;;;;;13.33;70.18;99022.75;5014883;28;20550;-70
2021/08/25 02:23:35;;;;;;;11.15;5.38;;;;;;;13.39;70.11;99013.28;5032466;28;20109;-70
2021/08/25 02:26:01;;;;;;;12.98;6.13;;;;;;;13.44;70.08;99014.34;5032501;28;20436;-70
2021/08/25 02:28:26;;;;;;;10.95;6.18;;;;;;;13.47;70.25;99016.50;5032584;28;20091;-71
2021/08/25 02:30:52;;;;;;;10.02;5.07;;;;;;;13.51;70.26;99017.53;5032903;28;20025;-71
2021/08/25 02:33:17;;;;;;;10.57;5.55;;;;;;;13.55;70.19;99018.56;5032773;28;20038;-71
2021/08/25 02:35:42;;;;;;;12.05;5.38;;;;;;;13.57;70.11;99013.59;5015820;28;20034;-70
2021/08/25 02:38:08;;;;;;;10.02;5.28;;;;;;;13.61;70.20;99020.13;5034127;28;20049;-71
2021/08/25 02:40:33;;;;;;;13.70;5.85;;;;;;;13.62;70.04;99010.75;5032787;28;20033;-71
2021/08/25 02:42:59;;;;;;;12.20;5.70;;;;;;;13.64;70.09;99008.50;5032146;28;20029;-71
2021/08/25 02:45:24;;;;;;;16.63;5.80;;;;;;;13.67;70.03;99004.31;5014621;28;20497;-71
2021/08/25 02:47:50;;;;;;;10.55;5.30;;;;;;;13.67;70.03;99007.88;5014650;28;20024;-71
2021/08/25 02:50:15;;;;;;;11.75;5.03;;;;;;;13.68;70.04;99003.19;5032622;28;20041;-71
2021/08/25 02:52:40;;;;;;;11.05;5.28;;;;;;;13.68;70.08;98995.72;5031883;28;20087;-71
2021/08/25 02:55:07;;;;;;;12.07;5.03;;;;;;;13.68;70.29;98994.91;5032081;28;20030;-71
2021/08/25 02:57:33;;;;;;;8.52;4.95;;;;;;;13.68;69.90;99000.44;5031870;28;20025;-71
2021/08/25 02:59:58;;;;;;;13.93;5.75;;;;;;;13.66;69.99;98988.88;5032173;28;20361;-71
2021/08/25 03:02:24;;;;;;;10.77;6.45;;;;;;;13.65;69.71;98995.53;5031716;28;20411;-70
2021/08/25 03:04:49;;;;;;;9.80;5.70;;;;;;;13.63;70.11;98995.84;5014464;28;20025;-72
2021/08/25 03:07:14;;;;;;;11.55;5.32;;;;;;;13.62;69.64;98994.19;5032002;28;20075;-71
2021/08/25 03:09:40;;;;;;;12.27;5.32;;;;;;;13.58;69.54;98992.34;5026060;28;20105;-71
2021/08/25 03:12:06;;;;;;;10.52;5.40;;;;;;;13.57;69.88;98996.22;5026038;28;20057;-71
2021/08/25 03:14:32;;;;;;;12.18;5.82;;;;;;;13.57;69.91;98988.78;5013129;28;20038;-71
2021/08/25 03:16:57;;;;;;;10.75;5.45;;;;;;;13.50;69.49;98991.09;5031396;28;20071;-72
2021/08/25 03:19:23;;;;;;;10.90;5.45;;;;;;;13.36;69.41;98991.84;5013518;28;20025;-72
2021/08/25 03:21:48;;;;;;;11.40;5.63;;;;;;;13.35;69.45;98994.91;5030947;28;20045;-70
2021/08/25 03:24:13;;;;;;;13.68;5.95;;;;;;;13.37;69.59;98989.94;5031180;28;20075;-72
2021/08/25 03:26:39;;;;;;;12.10;5.60;;;;;;;13.38;69.66;98994.31;5031223;28;20092;-72
2021/08/25 03:29:04;;;;;;;14.13;5.30;;;;;;;13.31;69.74;99000.19;5031361;28;20029;-72
2021/08/25 03:31:30;;;;;;;13.65;5.65;;;;;;;13.28;69.38;98995.28;5030897;28;20037;-72
2021/08/25 03:33:55;;;;;;;12.48;5.55;;;;;;;13.24;69.35;98997.84;5031161;28;20026;-72
2021/08/25 03:36:21;;;;;;;12.10;5.55;;;;;;;13.25;69.62;98998.63;5030695;28;20022;-71
2021/08/25 03:38:46;;;;;;;12.30;4.97;;;;;;;13.25;69.67;98988.44;5031265;28;20033;-71
2021/08/25 03:41:12;;;;;;;11.45;5.10;;;;;;;13.22;69.57;98975.28;5013977;28;20032;-72
2021/08/25 03:43:37;;;;;;;11.18;5.05;;;;;;;13.17;69.47;98983.63;5028940;28;20033;-72
2021/08/25 03:46:03;;;;;;;13.73;6.07;;;;;;;13.17;69.49;98983.63;5031186;28;20033;-72
2021/08/25 03:48:28;;;;;;;11.75;5.55;;;;;;;13.12;69.41;98985.66;5031301;28;20480;-72
2021/08/25 03:50:53;;;;;;;11.88;5.53;;;;;;;13.09;69.39;98987.91;5013251;28;20047;-72
2021/08/25 03:53:19;;;;;;;10.50;5.05;;;;;;;13.05;69.52;98980.50;5027187;28;20469;-71
2021/08/25 03:55:44;;;;;;;12.80;5.50;;;;;;;13.03;69.48;98983.59;5030262;28;20025;-71
2021/08/25 03:58:10;;;;;;;9.55;5.10;;;;;;;13.05;69.53;98975.00;5030202;28;20030;-72
2021/08/25 04:00:35;;;;;;;9.75;5.32;;;;;;;13.02;69.25;98978.38;5030738;28;20104;-72
2021/08/25 04:03:01;;;;;;;11.10;5.43;;;;;;;12.95;69.19;98979.59;5030454;28;20021;-72
2021/08/25 04:05:26;;;;;;;10.07;5.32;;;;;;;12.95;69.24;98979.59;5030352;28;20029;-71
2021/08/25 04:07:52;;;;;;;13.88;6.10;;;;;;;12.84;69.27;98983.59;5012408;28;20048;-72
2021/08/25 04:10:18;;;;;;;12.88;5.85;;;;;;;12.74;69.41;98976.31;5030159;28;20044;-71
2021/08/25 04:12:43;;;;;;;12.20;6.25;;;;;;;12.76;68.94;98982.34;5030413;28;20029;-72
2021/08/25 04:15:09;;;;;;;25.65;14.02;;;;;;;12.76;69.29;98976.84;5030114;28;20042;-72
2021/08/25 04:17:34;;;;;;;28.40;18.05;;;;;;;12.77;69.61;98975.72;5012831;28;20036;-72
2021/08/25 04:20:00;;;;;;;27.67;16.92;;;;;;;12.80;69.58;98975.13;5030800;28;20120;-72
2021/08/25 04:22:26;;;;;;;30.45;18.83;;;;;;;12.83;69.73;98981.16;5012765;28;20033;-72
2021/08/25 04:24:51;;;;;;;29.23;18.70;;;;;;;12.84;69.40;98978.09;5030581;28;20022;-72
2021/08/25 04:27:17;;;;;;;24.17;14.45;;;;;;;12.87;69.64;98973.91;5030465;28;20385;-72
2021/08/25 04:29:42;;;;;;;31.17;15.93;;;;;;;12.84;69.60;98971.78;5030761;28;20374;-71
2021/08/25 04:32:08;;;;;;;53.78;22.00;;;;;;;12.87;69.50;98971.16;5030355;28;20041;-72
2021/08/25 04:34:33;;;;;;;79.55;28.63;;;;;;;12.83;69.32;98968.19;5013048;28;20030;-72
2021/08/25 04:36:59;;;;;;;58.78;25.35;;;;;;;12.84;69.42;98980.03;5030396;28;20112;-72
2021/08/25 04:39:24;;;;;;;64.38;25.50;;;;;;;12.84;69.22;98969.84;5030365;28;20033;-72
2021/08/25 04:41:49;;;;;;;46.63;19.60;;;;;;;12.84;69.24;98975.34;5030060;28;20052;-71
2021/08/25 04:44:15;;;;;;;30.98;14.90;;;;;;;12.79;69.49;98965.25;5030391;28;20025;-72
2021/08/25 04:46:40;;;;;;;35.75;18.88;;;;;;;12.76;69.63;98965.84;5029986;28;20028;-71
2021/08/25 04:49:06;;;;;;;29.90;17.02;;;;;;;12.71;69.69;98963.16;5030225;28;20034;-72
2021/08/25 04:51:31;;;;;;;29.60;13.50;;;;;;;12.70;69.43;98971.69;5029727;28;20053;-71
2021/08/25 04:53:56;;;;;;;31.08;13.80;;;;;;;12.71;69.71;98974.16;5029983;28;20029;-72
2021/08/25 04:56:22;;;;;;;35.03;13.57;;;;;;;12.72;70.06;98962.03;5011997;28;20025;-72
2021/08/25 04:58:47;;;;;;;47.47;15.85;;;;;;;12.76;69.98;98971.34;5029615;28;20036;-72
2021/08/25 05:01:13;;;;;;;30.15;11.38;;;;;;;12.78;69.49;98962.75;5029807;28;20426;-71
2021/08/25 05:03:38;;;;;;;20.50;9.45;;;;;;;12.76;70.11;98965.84;5029522;28;20025;-72
2021/08/25 05:06:11;;;;;;;18.05;7.55;;;;;;;12.76;69.68;98965.00;5029637;28;20059;-72
2021/08/25 05:08:37;;;;;;;13.77;6.45;;;;;;;12.71;70.08;98960.41;5027333;28;20064;-71
2021/08/25 05:11:04;;;;;;;13.88;6.15;;;;;;;12.68;70.02;98961.00;5029956;28;20293;-71
2021/08/25 05:13:29;;;;;;;13.50;6.03;;;;;;;12.63;70.19;98967.38;5029696;28;20420;-71
2021/08/25 05:15:55;;;;;;;13.93;5.85;;;;;;;12.68;70.12;98962.91;5029550;28;20046;-72
2021/08/25 05:18:20;;;;;;;14.13;6.22;;;;;;;12.60;70.43;98951.47;5029672;28;21454;-71
2021/08/25 05:20:46;;;;;;;14.45;5.82;;;;;;;12.60;70.57;98954.25;5032858;28;20511;-71
2021/08/25 05:23:11;;;;;;;12.25;6.20;;;;;;;12.59;70.13;98958.09;5036209;28;20017;-72
2021/08/25 05:25:37;;;;;;;11.90;6.80;;;;;;;12.63;70.60;98953.63;5018533;28;20033;-71
2021/08/25 05:28:03;;;;;;;11.27;6.07;;;;;;;12.66;70.57;98953.03;5018432;28;20021;-71
2021/08/25 05:30:28;;;;;;;13.02;5.53;;;;;;;12.65;70.75;98945.88;5036466;28;21280;-71
2021/08/25 05:32:54;;;;;;;10.93;5.95;;;;;;;12.58;70.62;98941.88;5035647;28;20041;-72
2021/08/25 05:35:20;;;;;;;13.43;6.22;;;;;;;12.58;71.10;98941.88;5035941;28;20021;-71
2021/08/25 05:37:47;;;;;;;10.95;5.55;;;;;;;12.57;70.71;98940.25;5035833;28;20029;-72
2021/08/25 05:40:14;;;;;;;12.88;5.85;;;;;;;12.54;70.77;98943.59;5035445;28;20108;-71
2021/08/25 05:42:40;;;;;;;11.07;5.43;;;;;;;12.45;71.15;98948.94;5036056;28;20025;-71
2021/08/25 05:45:07;;;;;;;12.45;5.47;;;;;;;12.40;71.09;98947.09;5036148;28;20022;-72
2021/08/25 05:47:32;;;;;;;11.70;6.20;;;;;;;12.46;70.98;98945.06;5035569;28;20381;-71
2021/08/25 05:49:58;;;;;;;12.38;5.60;;;;;;;12.56;71.11;98946.84;5036083;28;20021;-72
2021/08/25 05:52:23;;;;;;;10.15;5.00;;;;;;;12.61;71.43;98950.38;5035652;28;20072;-72
2021/08/25 05:54:49;;;;;;;12.63;5.70;;;;;;;12.58;71.03;98950.97;5035662;28;20442;-71
2021/08/25 05:57:14;;;;;;;11.40;5.40;;;;;;;12.65;71.45;98943.13;5035769;28;20029;-72
2021/08/25 05:59:39;;;;;;;11.38;5.55;;;;;;;12.75;71.75;98955.94;5035747;28;20363;-71
2021/08/25 06:02:05;;;;;;;14.32;6.35;;;;;;;12.81;71.27;98964.94;5035506;28;20117;-72
2021/08/25 06:04:31;;;;;;;10.32;5.93;;;;;;;12.81;71.09;98959.41;5036201;28;20030;-71
2021/08/25 06:06:56;;;;;;;13.15;6.07;;;;;;;12.91;71.36;98966.69;5035617;28;20025;-71
2021/08/25 06:09:21;;;;;;;12.82;5.57;;;;;;;12.99;71.43;98960.50;5018066;28;20025;-71
2021/08/25 06:11:47;;;;;;;14.18;6.25;;;;;;;12.97;71.64;98962.75;5017578;28;20029;-72
2021/08/25 06:14:12;;;;;;;13.88;6.35;;;;;;;13.04;71.20;98963.19;5035653;28;20504;-71
2021/08/25 06:16:38;;;;;;;16.63;7.55;;;;;;;13.02;70.68;98965.41;5035992;28;20108;-72
2021/08/25 06:19:04;;;;;;;66.20;22.73;;;;;;;13.09;70.89;98970.53;5035301;28;20484;-71
2021/08/25 06:21:30;;;;;;;36.38;12.55;;;;;;;13.10;71.34;98966.66;5017911;28;20032;-72
2021/08/25 06:23:55;;;;;;;87.88;25.60;;;;;;;13.14;71.11;98972.41;5035381;28;20101;-71
2021/08/25 06:26:21;;;;;;;22.92;9.75;;;;;;;13.13;71.00;98965.25;5036974;28;20026;-72
2021/08/25 06:28:46;;;;;;;12.93;8.30;;;;;;;13.16;71.19;98961.91;5036527;28;20283;-71
2021/08/25 06:31:12;;;;;;;17.00;8.45;;;;;;;13.23;70.95;98967.84;5037043;28;20029;-70
2021/08/25 06:33:37;;;;;;;13.50;7.45;;;;;;;13.12;70.78;98969.94;5032772;28;20029;-71
2021/08/25 06:36:03;;;;;;;12.52;7.03;;;;;;;13.12;71.38;98967.19;5033853;28;20509;-71
2021/08/25 06:38:29;;;;;;;15.27;7.55;;;;;;;13.12;71.06;98969.13;5033624;28;20041;-71
2021/08/25 06:40:54;;;;;;;18.42;8.45;;;;;;;13.19;71.25;98964.88;5015605;28;20033;-71
2021/08/25 06:43:19;;;;;;;19.83;9.23;;;;;;;13.17;71.16;98960.78;5033048;28;20030;-72
2021/08/25 06:45:45;;;;;;;15.75;8.57;;;;;;;13.22;71.28;98957.97;5033400;28;20030;-72
2021/08/25 06:48:10;;;;;;;18.42;8.75;;;;;;;13.31;71.16;98963.59;5033238;28;20108;-72
2021/08/25 06:50:36;;;;;;;15.55;8.48;;;;;;;13.44;70.98;98960.09;5033537;28;20026;-71
2021/08/25 06:53:01;;;;;;;17.13;9.25;;;;;;;13.46;71.01;98955.06;5032635;28;20037;-71
2021/08/25 06:55:26;;;;;;;15.88;8.80;;;;;;;13.51;71.41;98951.41;5033441;28;20029;-71
2021/08/25 06:57:52;;;;;;;16.77;9.18;;;;;;;13.58;70.92;98960.09;5033407;28;20036;-71
2021/08/25 07:00:21;;;;;;;15.43;8.27;;;;;;;13.70;71.44;98954.88;5033051;28;20040;-71
2021/08/25 07:02:47;;;;;;;14.85;9.02;;;;;;;13.80;71.09;98958.59;5032657;28;20037;-72
2021/08/25 07:05:12;;;;;;;17.20;10.82;;;;;;;13.85;70.82;98955.72;5033385;28;20033;-71
2021/08/25 07:07:37;;;;;;;16.60;8.60;;;;;;;13.85;70.36;98950.22;5015636;28;20033;-71
2021/08/25 07:10:04;;;;;;;16.02;9.13;;;;;;;13.80;70.47;98956.66;5015268;28;20022;-70
2021/08/25 07:12:29;;;;;;;14.80;8.90;;;;;;;13.86;70.13;98962.88;5032846;28;20026;-71
2021/08/25 07:14:55;;;;;;;14.07;8.75;;;;;;;13.94;70.18;98959.41;5032699;28;20059;-71
2021/08/25 07:17:22;;;;;;;15.32;8.55;;;;;;;14.02;70.04;98954.31;5033226;28;20036;-72
2021/08/25 07:19:47;;;;;;;17.95;8.20;;;;;;;14.12;70.02;98951.31;5032567;28;20113;-71
2021/08/25 07:22:13;;;;;;;17.70;9.57;;;;;;;14.17;69.80;98948.47;5032292;28;20541;-71
2021/08/25 07:24:38;;;;;;;15.43;9.30;;;;;;;14.20;69.26;98945.09;5032924;28;20029;-72
2021/08/25 07:27:04;;;;;;;14.40;8.48;;;;;;;14.14;69.04;98941.63;5032858;28;20021;-71
2021/08/25 07:29:30;;;;;;;15.70;9.73;;;;;;;14.06;68.81;98938.78;5032580;28;20052;-71
2021/08/25 07:31:55;;;;;;;16.67;10.35;;;;;;;14.08;69.06;98940.09;5032209;28;20108;-71
2021/08/25 07:34:20;;;;;;;15.48;8.00;;;;;;;14.10;68.99;98937.84;5032376;28;20380;-71
2021/08/25 07:36:46;;;;;;;15.02;8.35;;;;;;;14.10;68.65;98937.84;5032455;28;20466;-71
2021/08/25 07:39:11;;;;;;;17.15;7.80;;;;;;;14.18;68.24;98932.75;5013858;28;20033;-71
2021/08/25 07:41:37;;;;;;;14.00;8.07;;;;;;;14.18;67.47;98936.28;5029008;28;20116;-72
2021/08/25 07:44:02;;;;;;;14.25;8.15;;;;;;;14.18;66.19;98932.75;5030565;28;20061;-71
2021/08/25 07:46:32;;;;;;;17.58;9.30;;;;;;;14.18;66.56;98939.06;5032160;28;20103;-71
2021/08/25 07:49:05;;;;;;;15.90;8.65;;;;;;;14.22;66.59;98931.78;5031076;28;20025;-71
2021/08/25 07:51:31;;;;;;;15.20;8.93;;;;;;;14.31;65.91;98931.06;5030965;28;20501;-72
2021/08/25 07:53:57;;;;;;;16.17;9.52;;;;;;;14.36;66.40;98929.00;5026958;28;20030;-70
2021/08/25 07:56:22;;;;;;;15.02;8.55;;;;;;;14.49;66.67;98921.03;5028805;28;20030;-70
2021/08/25 07:58:47;;;;;;;15.45;8.60;;;;;;;14.62;66.97;98908.28;5027778;28;20037;-71
2021/08/25 08:01:13;;;;;;;19.20;9.80;;;;;;;14.74;65.50;98898.34;5028227;28;20033;-71
2021/08/25 08:03:39;;;;;;;31.33;16.42;;;;;;;14.81;65.40;98903.47;5027634;28;20021;-73
2021/08/25 08:06:04;;;;;;;16.40;8.70;;;;;;;14.89;65.50;98908.19;5028312;28;20029;-72
2021/08/25 08:08:30;;;;;;;12.60;7.00;;;;;;;14.97;65.21;98901.13;5026653;28;20548;-71
2021/08/25 08:10:55;;;;;;;14.52;8.00;;;;;;;15.03;64.71;98908.16;5029486;28;20061;-71
2021/08/25 08:13:21;;;;;;;14.07;6.68;;;;;;;15.04;64.27;98897.91;5030145;28;20045;-72
2021/08/25 08:15:46;;;;;;;12.82;6.38;;;;;;;15.11;63.66;98903.81;5011969;28;20061;-72
2021/08/25 08:18:20;;;;;;;21.92;13.07;;;;;;;15.20;63.13;98903.84;5030023;28;20466;-71
2021/08/25 08:20:47;;;;;;;12.88;6.50;;;;;;;15.23;60.99;98900.47;5011132;28;20041;-71
2021/08/25 08:23:12;;;;;;;10.02;5.80;;;;;;;15.23;61.88;98896.91;5030338;28;20108;-70
2021/08/25 08:25:38;;;;;;;13.85;7.13;;;;;;;15.22;61.91;98898.03;5012485;28;20032;-70
2021/08/25 08:28:04;;;;;;;11.35;5.78;;;;;;;15.26;62.10;98894.31;4992936;28;20014;-70
2021/08/25 08:30:31;;;;;;;15.35;8.70;;;;;;;15.33;61.68;98889.16;5021334;28;20548;-71
2021/08/25 08:32:56;;;;;;;9.65;5.60;;;;;;;15.36;60.71;98890.44;5011454;28;20457;-72
2021/08/25 08:35:22;;;;;;;11.45;5.28;;;;;;;15.34;59.88;98889.94;5024603;28;20049;-72
2021/08/25 08:37:47;;;;;;;11.50;5.60;;;;;;;15.34;59.66;98887.19;5029617;28;20021;-70
2021/08/25 08:40:13;;;;;;;13.30;7.35;;;;;;;15.35;59.95;98875.00;5029605;28;20071;-71
2021/08/25 08:42:39;;;;;;;25.42;14.75;;;;;;;15.35;58.70;98872.22;5029022;28;20029;-68
2021/08/25 08:45:05;;;;;;;22.00;12.73;;;;;;;15.30;59.25;98873.19;5028876;28;20524;-69
2021/08/25 08:47:31;;;;;;;12.63;6.60;;;;;;;15.30;58.51;98869.59;5029738;28;20025;-69
2021/08/25 08:49:59;;;;;;;11.55;5.90;;;;;;;15.29;58.44;98867.97;5029884;28;20443;-69
2021/08/25 08:52:26;;;;;;;11.18;5.55;;;;;;;15.44;58.60;98852.94;5029413;28;20029;-71
2021/08/25 08:54:57;;;;;;;16.50;7.85;;;;;;;15.60;58.61;98861.63;5029560;28;20029;-73
2021/08/25 08:57:23;;;;;;;24.02;12.25;;;;;;;15.64;54.46;98859.84;5029707;28;20108;-70
2021/08/25 08:59:49;;;;;;;10.20;5.20;;;;;;;15.61;55.34;98850.22;5029065;28;20533;-71
2021/08/25 09:02:45;;;;;;;9.60;5.07;;;;;;;15.65;55.61;98849.59;5029301;28;20029;-70
2021/08/25 09:05:22;;;;;;;9.65;4.93;;;;;;;15.77;55.26;98847.81;5028363;28;20029;-72
2021/08/25 09:07:56;;;;;;;11.27;5.93;;;;;;;15.85;55.60;98848.19;5028492;28;20033;-72
2021/08/25 09:10:27;;;;;;;10.13;5.03;;;;;;;15.89;54.02;98847.25;5028865;28;20087;-71
2021/08/25 09:13:04;;;;;;;12.82;6.53;;;;;;;15.97;54.60;98851.16;5028846;28;20589;-72
2021/08/25 09:15:32;;;;;;;9.98;4.75;;;;;;;15.97;54.20;98842.88;5029785;28;20057;-72
2021/08/25 09:17:59;;;;;;;11.55;5.60;;;;;;;15.95;53.09;98830.47;5028852;28;20112;-72
2021/08/25 09:20:26;;;;;;;9.88;5.10;;;;;;;16.02;53.61;98828.06;5026423;28;20136;-72
2021/08/25 09:23:25;;;;;;;10.00;4.72;;;;;;;16.18;54.64;98823.69;5028467;28;20029;-72
2021/08/25 09:25:56;;;;;;;11.33;5.07;;;;;;;16.34;55.07;98828.72;5017223;28;20042;-72
2021/08/25 09:28:28;;;;;;;9.88;4.88;;;;;;;16.44;54.00;98827.59;5028929;28;20080;-72
2021/08/25 09:31:07;;;;;;;10.63;5.00;;;;;;;16.43;53.82;98829.53;5028771;28;20132;-72
2021/08/25 09:33:38;;;;;;;9.68;4.80;;;;;;;16.44;52.10;98831.16;5010719;28;20025;-71
2021/08/25 09:36:07;;;;;;;11.65;5.82;;;;;;;16.46;51.74;98833.63;5028820;28;20041;-71
2021/08/25 09:38:34;;;;;;;9.00;4.53;;;;;;;16.35;49.59;98836.72;5026546;28;20033;-71
2021/08/25 09:41:03;;;;;;;11.18;4.80;;;;;;;16.23;50.85;98831.00;5027847;28;20500;-72
2021/08/25 09:43:44;;;;;;;11.68;5.50;;;;;;;16.13;51.38;98823.84;5026641;28;20132;-71
2021/08/25 09:46:25;;;;;;;10.52;5.32;;;;;;;16.18;51.60;98814.56;5025271;28;20029;-71
2021/08/25 09:48:59;;;;;;;10.52;4.45;;;;;;;16.25;51.76;98819.63;5025687;28;20742;-71
2021/08/25 09:51:38;;;;;;;10.55;4.72;;;;;;;16.32;52.16;98811.63;5027790;28;20037;-71
2021/08/25 09:54:06;;;;;;;11.85;4.85;;;;;;;16.29;49.86;98806.78;5023579;28;20041;-72
2021/08/25 09:56:34;;;;;;;10.43;5.00;;;;;;;16.27;48.65;98801.53;5029584;28;20033;-72
2021/08/25 09:59:01;;;;;;;10.15;5.43;;;;;;;16.33;49.33;98794.72;5029255;28;20037;-70
2021/08/25 10:01:27;;;;;;;9.90;5.22;;;;;;;16.47;49.30;98796.50;5029259;28;20036;-71
2021/08/25 10:03:53;;;;;;;11.13;5.35;;;;;;;16.60;50.44;98791.91;5029353;28;20064;-72
2021/08/25 10:06:21;;;;;;;10.93;5.55;;;;;;;16.70;50.43;98783.28;5030209;28;20481;-70
2021/08/25 10:08:46;;;;;;;15.02;6.10;;;;;;;16.86;50.96;98782.72;5033844;28;20033;-72
2021/08/25 10:11:13;;;;;;;9.07;4.75;;;;;;;16.95;49.51;98783.53;5033300;28;20030;-70
2021/08/25 10:13:40;;;;;;;10.05;5.22;;;;;;;17.02;49.87;98780.25;5033307;28;20032;-70
2021/08/25 10:16:10;;;;;;;8.82;4.53;;;;;;;17.05;48.25;98774.06;5009586;28;20049;-70
2021/08/25 10:18:40;;;;;;;10.57;5.35;;;;;;;17.16;48.69;98780.88;5029666;28;20124;-70
2021/08/25 10:21:23;;;;;;;;;;;;;;;17.22;47.55;98775.94;5031928;28;20033;-69
2021/08/25 10:23:59;;;;;;;13.13;6.47;;;;;;;17.25;47.18;98789.97;5029686;28;19917;-71
2021/08/25 10:26:28;;;;;;;12.48;6.05;;;;;;;17.14;47.11;98774.84;5031208;28;20394;-68
2021/08/25 10:29:07;;;;;;;12.10;5.18;;;;;;;17.11;48.38;98779.09;5029928;28;20024;-71
2021/08/25 10:31:54;;;;;;;10.10;4.80;;;;;;;17.08;47.32;98770.63;5012541;28;20036;-69
2021/08/25 10:34:21;;;;;;;10.73;5.60;;;;;;;17.02;45.68;98771.94;5031262;28;20030;-69
2021/08/25 10:36:47;;;;;;;11.40;5.55;;;;;;;16.99;46.47;98756.81;5030524;28;20021;-68
2021/08/25 10:39:33;;;;;;;11.18;5.68;;;;;;;17.05;47.99;98755.50;5030435;28;20129;-69
2021/08/25 10:41:59;;;;;;;10.57;5.30;;;;;;;17.21;46.62;98761.28;5030102;28;20500;-69
2021/08/25 10:44:36;;;;;;;11.38;5.00;;;;;;;17.20;46.37;98758.81;5031766;28;20033;-69
2021/08/25 10:47:03;;;;;;;11.65;5.68;;;;;;;17.28;46.36;98748.88;5030295;28;20033;-69
2021/08/25 10:49:33;;;;;;;12.02;6.07;;;;;;;17.30;47.10;98752.13;5029716;28;20021;-69
2021/08/25 10:52:28;;;;;;;13.05;6.05;;;;;;;17.34;47.19;98747.50;5030056;28;20033;-70
2021/08/25 10:54:55;;;;;;;9.50;5.45;;;;;;;17.32;46.30;98747.84;5028816;28;20049;-69
2021/08/25 10:57:23;;;;;;;10.60;5.53;;;;;;;17.29;46.42;98740.19;5031232;28;20088;-69
2021/08/25 10:59:49;;;;;;;13.40;5.20;;;;;;;17.28;47.24;98738.56;5013222;28;20057;-69
2021/08/25 11:02:15;;;;;;;9.30;4.88;;;;;;;17.31;47.03;98728.78;5012973;28;20506;-70
2021/08/25 11:04:41;;;;;;;11.65;5.30;;;;;;;17.29;46.31;98722.78;5031962;28;20091;-70
2021/08/25 11:07:13;;;;;;;10.73;4.88;;;;;;;17.33;46.29;98726.47;5031257;28;20240;-70
2021/08/25 11:09:42;;;;;;;10.55;4.97;;;;;;;17.43;47.49;98719.75;5025872;28;20021;-69
2021/08/25 11:12:12;;;;;;;10.85;5.50;;;;;;;17.55;47.08;98712.31;5024465;28;20156;-69
2021/08/25 11:14:48;;;;;;;11.70;5.50;;;;;;;17.69;45.92;98712.06;5023975;28;20099;-68
2021/08/25 11:17:16;;;;;;;9.73;4.90;;;;;;;17.70;45.63;98708.13;5028736;28;20537;-69
2021/08/25 11:19:53;;;;;;;11.73;5.78;;;;;;;17.62;45.72;98710.97;5020358;28;20182;-69
2021/08/25 11:22:22;;;;;;;10.82;5.50;;;;;;;17.56;46.01;98710.34;5028432;28;20034;-68
2021/08/25 11:24:52;;;;;;;10.40;5.72;;;;;;;17.53;46.32;98705.47;5031820;28;20062;-68
2021/08/25 11:27:35;;;;;;;10.80;5.05;;;;;;;17.56;45.89;98702.03;5031413;28;20026;-68